Timeline UpdatesTrip UpdatesNews PostsPvt Posts♥♥Travel TipsAdmin PostsConv PostsFollowed PostsChat RequestsBlog PostsPNR Posts

Disclaimer
Search
 
 
Thu Oct 30, 2014 23:46:58 ISTHomeTrainsΣChainsAtlasPNRForumGalleryNewsFAQTripsMembersLoginFeedback
No Recent News for this Train
Other Trains in the News **new
Latest...
.
Wed Oct 29, 2014 (11:00PM)
⇐ Return Journey: Train# 16338

16337/Okha-Ernakulam Express

Time-Table HAS CHANGED.
Yesterday (11:00PM)
Change Departure Station:
Change Arrival Station:
Post a Train Travel TipPost a Train Travel Tip **new
Post a Comment/Question/Picture/VideoPost a Comment/Question/Picture/Video
Pantry/Catering
✓ Pantry Car Avbl
✓ Catering Avbl
RSA - Rake Sharing
12683/84 Ernakulam Bangalore Express
Rake/Coach Composition
SLR-UR-A1-B2-B1-S12-S11-PC-S10-S9-S8-S7-S6-S5-S4-S3-S2-S1-UR-UR-SLR.; Author: Mahesh Kavthankar.; Entry# 276086.
Loco
ERS WDM3A
News    PNR    Forum    Time-Table    Availability    Fare Chart    Map    Arr/Dep History    Trips    Gallery    ΣChains    X/O    Timeline    
Travel Time: 38h 23m    36 halts    Distance: 1992 km    Avg Speed: 51 km/hr
Type: Mail/Express
Zone: SR/Southern
Departs @ 02:00
Platform# 1
 M    S
Okha/OKHA 
Arrives @ 16:23 +1 night
Platform# 2
S T    
Thalassery/TLY 

36 halts. 257 intermediate Stations between Okha and Thalassery

Show ALL intermediate Stations  Show Old Time-Table

#TrkCodeStation NameX/OArrivesAvgDepartsAvgHaltPFDay#KmSpeedElevZoneAddress
1|--|OKHAOkha (3)»  -02:00-110.0615mWROkha, Gujarat
2|--|DWKDwarka (2)  02:28-02:30-2m--128.66614mWRDwarka, Gujarat
3|--|KMBLKhambhalia  03:56 03:46-03:58 03:48-2m--1112.75949mWRKhambhalia, Gujarat
4|--|JAMJamnagar (2)  05:06 04:43-05:08 04:45-2m--1167.02014mWRJamnagar, Gujarat
5|--|HAPAHapa (3)  05:21 05:11-05:23 05:13-2m--1175.75716mWRJamnagar, Gujarat
6|--|RJTRajkot Junction (5)X  06:33-06:35-2m11251.661128mWRRajkot, Gujarat
7|-=!SUNRSurendranagar Junction (4)X  08:30-08:32-2m--1367.65072mWRSurendra Nagar, Gujarat
8|==|VGViramgam Junction (5)  09:50-09:52-2m21433.15429mWRViramgam, Gujarat
9/==/ADIAhmedabad Junction (12)X  11:05-11:25-20m51498.56251mWRAhmedabad, Gujarat
10/==/ANNDAnand Junction (6)X  12:27-12:29-2m11562.55244mWRAnand, Gujarat
11/==/BRCVadodara Junction (7)X  13:10-13:12-2m11598.37036mWRVadodara 390005, Gujarat
12/==/AKVAnkleshwar Junction (4)X  14:20-14:22-2m21678.14219mWRAnkleshwar, Gujarat
13/==/STSurat (4)X  15:33-15:35-2m21728.15719mWRSurat 395001, Gujarat
14/==/NVSNavsari (3)  16:06-16:08-2m21757.76214mWRNavsari, Gujarat
15/==/BLValsad (3)X  16:48 16:46-16:53 16:48-5 2m31796.84515mWRValsad, Gujarat
16/==/BORBoisar (3)X  18:57 18:56-18:59 18:57-2 1m--1893.33317mWRBoisar Tel.no-02525-266626, Maharashtra
17/==/BSRVasai Road (7)  20:30-20:40-10m71944.1637mWRVasai 401202, Maharashtra
18/==/BIRDBhiwandi Road (4)  21:06-21:08-2m11971.44226mCRBhiwandi, Maharashtra
19|--|PNVLPanvel Junction (7)  22:00-22:05-5m711008.05010mCRPanvel, Maharashtra
20|--|MNIMangaon (2)  00:12-00:14-2m121114.26712mKRMangaon - 402104, Maharashtra
21|--|RNRatnagiri (3)  03:35 02:50-03:40 02:55-5m121287.175129mKRRatnagiri 415612, Maharashtra
22|--|KKWKankavali (2)  05:42 04:24-05:44 04:26-2m121398.55245mKRKankavli - 416602, Maharashtra
23|--|THVMThivim (2)  07:08 05:56-07:10 05:58-2m121477.02921mKRThivim - 403502, Goa
24|--|MAOMadgaon Junction (3)  09:20 07:30-09:30 07:40-10m121521.95311mKRMadgaon 403601, Goa
25|--|KAWRKarwar (2)  10:35 08:50-10:37 08:52-2m121583.36814mKRKarwar, Karnataka
26|--|HNAHonnavar (2)X  11:56 09:53-11:58 09:55-2m--21652.2634mKRUttara Kannada Dist, Karnataka
27|--|BTJLBhatkal (2)  12:38 10:34-12:40 10:36-2m121693.14616mKRBhatkal - 581320, Karnataka
28|--|BYNRByndoor Mookambika Road (1)  12:56 10:56-12:58 10:58-2m121708.37710mKRUdupi Dist. 576214, Karnataka
29|--|KUDAKundapura (2)  13:26 11:24-13:28 11:26-2m121741.86913mKRKundapura - 576211, Karnataka
30|--|UDUdupi (2)X  14:02 11:54-14:04 11:56-2m121773.85718mKRUdupi, Karnataka
31|--|SLSurathkal (1)  14:52 12:40-14:54 12:42-2m121815.72122mKRSurathkal, Karnataka
32|--|MAJNMangalore Junction (3)  16:00 13:40-16:10 13:45-10 5m121836.26824mSRMangalore 575001, Karnataka
33%==%KGQKasaragod (3)  17:08 14:28-17:10 14:30-2m--21885.37718mSRTel: 04994 220800, Kerala
34%==%KZEKanhangad (3)X  17:28 14:48-17:30 14:50-2m--21908.46315mSRKanhangad, Kerala
35%==%PAYPayyanur (3)  17:53 15:18-17:55 15:20-2m221937.7880mSRKannur District, Kerala
36%==%KPQKannapuram (2)XO  18:10 15:33-18:12 15:35-2m221956.9299mSRKannur District, Kerala
37%==%CANKannur Main (4)X  18:45 16:05-18:50 16:10-5m321971.39514mSRKannur Tel: 0497 2705555, Kerala
38%==%TLYThalassery (2)•  19:08 16:23-19:10 16:25-2m221992.0749mSRKannur, Kerala
39%==%BDJVadakara (2)  19:30 16:43-19:32 16:45-2m122014.17311mSRCalicut / Station Ph No : 0496-2524254, Kerala
40%==%QLDKoyilandy (3)  19:48 17:03-19:50 17:05-2m222036.14211mSRQuilandi, Kerala
41%==%CLTKozhikode Main (4)  20:25 17:40-20:30 17:45-5m122060.44611mSRCalicut Tel: 0495 2701234, Kerala
42%==%FKFerok (2)  20:43 17:58-20:45 18:00-2m122070.46119mSRFeroke, Kerala
43%==%PGIParappangadi (2)  20:58 18:15-21:00 18:17-2m122085.66019mSRParappanangadi, Kerala
44%==%TIRTirur (3)  21:18 18:33-21:20 18:35-2m322101.6569mSRTel: 0494 2422240, Kerala
45%==%KTUKuttippuram (2)  21:38 18:51-21:40 18:53-2m222116.77417mSRKuttippuram, Kerala
46%==%PTBPattambi (2)XO  21:53 19:08-21:55 19:10-2m222135.21521mSRPattambi, Kerala
47%==%SRRShoranur Junction (7)O  22:50 19:55-23:00 20:05-10m422146.75626mSRShoranur ph.no 0466-2222913, Kerala
48/==/TCRThrissur (4)X  23:30 20:40-23:33 20:43-3m122179.7706mSRThrissur Tel: 0487 2423150, Kerala
49/==/AWYAluva (3)  00:20 21:30-00:22 21:32-2m122234.32412mSRPh: 0484-2624141, Kerala
50/=-/ERSErnakulam Junction (South) (6)  01:15 22:20--522253.7-3mSRErnakulam 682016, Kerala
Scroll to Top
Scroll to Bottom